Time;durP1;ratioP1;P1;durP2;ratioP2;P2;SDS_P1;SDS_P2;PMS_P1;PMS_P2;Temp;Humidity;BMP_temperature;BMP_pressure;BME280_temperature;BME280_humidity;BME280_pressure;Samples;Min_cycle;Max_cycle;Signal;HPM_P1;HPM_P2
2021/07/26 00:01:29;;;;;;;8.73;6.77;;;15.20;99.90;;;;;;5018135;28;20178;-83
2021/07/26 00:03:55;;;;;;;7.90;6.40;;;15.10;99.90;;;;;;5020904;28;20260;-83
2021/07/26 00:06:21;;;;;;;9.57;6.73;;;15.10;99.90;;;;;;5023538;28;20213;-83
2021/07/26 00:08:47;;;;;;;8.30;6.63;;;15.10;99.90;;;;;;5018043;28;20187;-82
2021/07/26 00:11:12;;;;;;;11.43;7.03;;;15.10;99.90;;;;;;5019277;28;20253;-83
2021/07/26 00:13:39;;;;;;;7.50;6.13;;;15.10;99.90;;;;;;5017407;28;20199;-83
2021/07/26 00:16:06;;;;;;;8.37;6.63;;;15.10;99.90;;;;;;5017533;28;20243;-83
2021/07/26 00:18:32;;;;;;;8.60;6.60;;;15.10;99.90;;;;;;5017594;28;20179;-83
2021/07/26 00:20:59;;;;;;;9.00;5.90;;;15.10;99.90;;;;;;5017377;28;20221;-83
2021/07/26 00:23:26;;;;;;;9.10;6.30;;;15.00;99.90;;;;;;5017279;28;20253;-83
2021/07/26 00:25:52;;;;;;;9.03;6.50;;;15.00;99.90;;;;;;5017403;28;20190;-83
2021/07/26 00:28:18;;;;;;;9.63;7.00;;;15.00;99.90;;;;;;5017340;28;20209;-83
2021/07/26 00:30:44;;;;;;;8.70;7.00;;;15.00;99.90;;;;;;5018322;28;20206;-83
2021/07/26 00:34:07;;;;;;;7.73;6.93;;;15.00;99.90;;;;;;5020451;28;20582;-82
2021/07/26 00:36:37;;;;;;;11.40;7.47;;;15.00;99.90;;;;;;5017564;28;20190;-83
2021/07/26 00:39:07;;;;;;;11.63;7.37;;;14.90;99.90;;;;;;5024631;28;20186;-83
2021/07/26 00:41:34;;;;;;;8.83;6.97;;;14.90;99.90;;;;;;5024438;28;20245;-83
2021/07/26 00:44:00;;;;;;;8.60;6.70;;;14.80;99.90;;;;;;5025652;28;20218;-83
2021/07/26 00:46:26;;;;;;;7.40;6.37;;;14.80;99.90;;;;;;5026956;28;20221;-83
2021/07/26 00:48:53;;;;;;;9.07;6.60;;;14.80;99.90;;;;;;5023614;28;20233;-83
2021/07/26 00:51:19;;;;;;;9.40;6.30;;;14.80;99.90;;;;;;5024518;28;20203;-82
2021/07/26 00:53:45;;;;;;;7.73;6.50;;;14.80;99.90;;;;;;5024116;28;20195;-83
2021/07/26 00:56:11;;;;;;;9.23;6.77;;;14.70;99.90;;;;;;5025054;28;20206;-83
2021/07/26 00:58:37;;;;;;;7.07;6.23;;;14.70;99.90;;;;;;5023704;28;20179;-83
2021/07/26 01:01:03;;;;;;;10.23;6.30;;;14.70;99.90;;;;;;5023670;28;20273;-83
2021/07/26 01:03:29;;;;;;;8.93;6.37;;;14.70;99.90;;;;;;5025357;28;20206;-83
2021/07/26 01:05:55;;;;;;;7.43;6.00;;;14.70;99.90;;;;;;5024633;28;20592;-83
2021/07/26 01:08:21;;;;;;;9.73;6.23;;;14.70;99.90;;;;;;5025340;28;20245;-82
2021/07/26 01:10:47;;;;;;;8.00;6.00;;;14.70;99.90;;;;;;5024616;28;20199;-83
2021/07/26 01:13:13;;;;;;;7.53;6.47;;;14.70;99.90;;;;;;5030045;28;20167;-82
2021/07/26 01:15:38;;;;;;;10.20;6.77;;;14.80;99.90;;;;;;5029591;28;20617;-83
2021/07/26 01:18:24;;;;;;;6.77;5.90;;;14.80;99.90;;;;;;5026919;28;20190;-83
2021/07/26 01:20:54;;;;;;;8.27;5.93;;;14.80;99.90;;;;;;5024812;28;20175;-83
2021/07/26 01:23:21;;;;;;;6.80;5.90;;;14.80;99.90;;;;;;5025113;28;20202;-84
2021/07/26 01:25:47;;;;;;;7.30;5.80;;;14.80;99.90;;;;;;5036140;28;20186;-82
2021/07/26 01:28:15;;;;;;;7.00;5.73;;;14.80;99.90;;;;;;5037753;28;20183;-82
2021/07/26 01:30:42;;;;;;;7.50;5.97;;;14.70;99.90;;;;;;5024337;28;20206;-83
2021/07/26 01:33:09;;;;;;;6.13;5.50;;;14.70;99.90;;;;;;5022678;28;20167;-83
2021/07/26 01:35:36;;;;;;;6.67;5.43;;;14.70;99.90;;;;;;5023351;28;20171;-82
2021/07/26 01:38:02;;;;;;;7.67;5.67;;;14.80;99.90;;;;;;5022688;28;20179;-83
2021/07/26 01:40:29;;;;;;;5.43;4.93;;;;;;;;;;5024170;28;20297;-83
2021/07/26 01:43:01;;;;;;;5.50;4.93;;;14.80;99.90;;;;;;5024099;28;20179;-83
2021/07/26 01:45:27;;;;;;;5.97;5.20;;;14.80;99.90;;;;;;5021643;28;20198;-82
2021/07/26 01:47:59;;;;;;;9.83;5.00;;;14.80;99.90;;;;;;5023423;28;20187;-84
2021/07/26 01:50:28;;;;;;;5.83;5.13;;;14.80;99.90;;;;;;5023705;28;20191;-82
2021/07/26 01:52:54;;;;;;;6.10;4.83;;;14.80;99.90;;;;;;5021243;28;20179;-83
2021/07/26 01:55:20;;;;;;;5.63;4.87;;;14.80;99.90;;;;;;5022839;28;20199;-83
2021/07/26 01:57:46;;;;;;;5.53;4.60;;;14.80;99.90;;;;;;5021252;28;20654;-82
2021/07/26 02:00:12;;;;;;;5.47;4.90;;;14.80;99.90;;;;;;5022568;28;20187;-82
2021/07/26 02:02:38;;;;;;;6.80;5.03;;;14.90;99.90;;;;;;5030651;28;20301;-81
2021/07/26 02:05:05;;;;;;;4.93;4.43;;;14.90;99.90;;;;;;5037609;28;20186;-82
2021/07/26 02:07:30;;;;;;;4.80;4.30;;;14.90;99.90;;;;;;5040053;28;20163;-82
2021/07/26 02:09:56;;;;;;;7.70;4.67;;;14.90;99.90;;;;;;5027522;28;20286;-83
2021/07/26 02:12:21;;;;;;;6.83;4.90;;;14.90;99.90;;;;;;5023483;28;20187;-84
2021/07/26 02:14:47;;;;;;;5.63;4.73;;;14.90;99.90;;;;;;5024214;28;20226;-83
2021/07/26 02:17:13;;;;;;;5.07;4.40;;;15.00;99.90;;;;;;5023955;28;20569;-83
2021/07/26 02:19:38;;;;;;;5.13;4.63;;;15.00;99.90;;;;;;5022993;28;20183;-83
2021/07/26 02:22:04;;;;;;;4.63;4.13;;;15.00;99.90;;;;;;5023249;28;20182;-83
2021/07/26 02:24:30;;;;;;;5.50;4.63;;;15.00;99.90;;;;;;5023602;28;20212;-83
2021/07/26 02:26:56;;;;;;;4.33;3.93;;;15.00;99.90;;;;;;5024901;28;20183;-83
2021/07/26 02:29:21;;;;;;;7.77;4.60;;;15.00;99.90;;;;;;5025013;28;20183;-83
2021/07/26 02:31:48;;;;;;;6.30;4.23;;;;;;;;;;5020817;28;20623;-83
2021/07/26 02:34:13;;;;;;;5.30;3.93;;;15.10;99.90;;;;;;5022384;28;20187;-83
2021/07/26 02:36:39;;;;;;;5.53;4.40;;;15.10;99.90;;;;;;5022800;28;20764;-83
2021/07/26 02:39:05;;;;;;;6.97;4.43;;;15.10;99.90;;;;;;5022883;28;20175;-83
2021/07/26 02:41:31;;;;;;;4.53;4.13;;;15.20;99.90;;;;;;5021477;28;20236;-83
2021/07/26 02:43:57;;;;;;;6.03;4.03;;;15.10;99.90;;;;;;5020088;28;20237;-83
2021/07/26 02:46:23;;;;;;;5.47;3.70;;;15.20;99.90;;;;;;5020768;28;20190;-83
2021/07/26 02:48:48;;;;;;;5.60;4.07;;;15.20;99.90;;;;;;5022941;28;20183;-83
2021/07/26 02:51:14;;;;;;;5.77;3.63;;;15.20;99.90;;;;;;5022387;28;20207;-83
2021/07/26 02:53:41;;;;;;;4.80;4.23;;;15.10;99.90;;;;;;5020962;28;20584;-83
2021/07/26 02:56:10;;;;;;;5.47;4.13;;;15.10;99.90;;;;;;5020654;28;20175;-83
2021/07/26 02:58:37;;;;;;;5.13;3.77;;;15.10;99.90;;;;;;5019705;28;20186;-83
2021/07/26 03:01:03;;;;;;;4.80;3.90;;;15.10;99.90;;;;;;5022045;28;20186;-83
2021/07/26 03:03:29;;;;;;;4.10;3.70;;;15.10;99.90;;;;;;5021395;28;20263;-83
2021/07/26 03:05:55;;;;;;;4.67;3.83;;;15.10;99.90;;;;;;5022550;28;20213;-83
2021/07/26 03:08:20;;;;;;;7.90;4.53;;;15.10;99.90;;;;;;5022181;28;20194;-83
2021/07/26 03:10:46;;;;;;;5.37;4.40;;;15.10;99.90;;;;;;5020823;28;20203;-82
2021/07/26 03:13:11;;;;;;;4.97;4.03;;;15.20;99.90;;;;;;5020855;28;20628;-83
2021/07/26 03:15:37;;;;;;;4.63;3.93;;;15.10;99.90;;;;;;5022313;28;20182;-83
2021/07/26 03:18:03;;;;;;;3.60;3.30;;;15.10;99.90;;;;;;5020870;28;20186;-83
2021/07/26 03:20:29;;;;;;;4.93;4.40;;;15.10;99.90;;;;;;5020388;28;20198;-83
2021/07/26 03:23:08;;;;;;;5.77;4.23;;;15.10;99.90;;;;;;5020595;28;20182;-83
2021/07/26 03:25:38;;;;;;;4.77;4.17;;;15.00;99.90;;;;;;5022600;28;20174;-83
2021/07/26 03:28:04;;;;;;;4.47;4.03;;;15.10;99.90;;;;;;5022317;28;20182;-83
2021/07/26 03:30:31;;;;;;;4.73;4.20;;;15.10;99.90;;;;;;5020060;28;20206;-83
2021/07/26 03:32:57;;;;;;;5.20;4.30;;;15.10;99.90;;;;;;5019812;28;20210;-83
2021/07/26 03:35:24;;;;;;;5.03;4.53;;;15.10;99.90;;;;;;5019389;28;20199;-83
2021/07/26 03:37:51;;;;;;;5.33;4.17;;;15.00;99.90;;;;;;5021407;28;20249;-83
2021/07/26 03:40:18;;;;;;;5.00;4.13;;;15.10;99.90;;;;;;5019932;28;20250;-82
2021/07/26 03:42:44;;;;;;;4.47;3.80;;;15.10;99.90;;;;;;5019157;28;20533;-83
2021/07/26 03:45:14;;;;;;;6.57;4.47;;;15.10;99.90;;;;;;5018533;28;20222;-83
2021/07/26 03:47:40;;;;;;;7.30;4.40;;;15.10;99.90;;;;;;5020240;28;20187;-83
2021/07/26 03:50:09;;;;;;;5.53;4.67;;;15.10;99.90;;;;;;5018554;28;20735;-83
2021/07/26 03:52:52;;;;;;;5.47;3.87;;;15.10;99.90;;;;;;5019312;28;20179;-83
2021/07/26 03:55:22;;;;;;;4.87;4.27;;;15.10;99.90;;;;;;5018294;28;20190;-83
2021/07/26 03:57:49;;;;;;;5.30;4.07;;;15.10;99.90;;;;;;5018863;28;20277;-84
2021/07/26 04:00:17;;;;;;;5.10;4.40;;;15.10;99.90;;;;;;5027512;28;20191;-83
2021/07/26 04:02:49;;;;;;;5.30;4.63;;;15.10;99.90;;;;;;5020419;28;20274;-83
2021/07/26 04:05:37;;;;;;;4.87;4.13;;;15.10;99.90;;;;;;4994995;28;20199;-83
2021/07/26 04:08:08;;;;;;;5.40;4.43;;;15.00;99.90;;;;;;5002042;28;20210;-82
2021/07/26 04:10:36;;;;;;;6.90;4.10;;;15.10;99.90;;;;;;5004038;28;20195;-83
2021/07/26 04:13:02;;;;;;;4.93;4.17;;;15.00;99.90;;;;;;4989956;28;20229;-82
2021/07/26 04:15:27;;;;;;;5.00;4.23;;;15.00;99.90;;;;;;4996291;28;20205;-82
2021/07/26 04:17:53;;;;;;;7.27;3.97;;;15.00;99.90;;;;;;4980563;28;20256;-83
2021/07/26 04:20:20;;;;;;;5.80;4.30;;;15.00;99.90;;;;;;4997088;28;20184;-82
2021/07/26 04:22:45;;;;;;;4.47;4.03;;;15.00;99.90;;;;;;4997653;28;20176;-83
2021/07/26 04:25:11;;;;;;;5.03;4.37;;;15.00;99.90;;;;;;4998443;28;20251;-83
2021/07/26 04:27:37;;;;;;;6.37;4.03;;;15.00;99.90;;;;;;4999180;28;20195;-83
2021/07/26 04:30:06;;;;;;;5.77;3.70;;;15.00;99.90;;;;;;4983660;28;20641;-83
2021/07/26 04:32:43;;;;;;;6.20;3.70;;;15.00;99.90;;;;;;4998242;28;20180;-83
2021/07/26 04:35:10;;;;;;;7.07;4.33;;;15.00;99.90;;;;;;4984999;28;20191;-83
2021/07/26 04:37:36;;;;;;;5.17;4.00;;;15.00;99.90;;;;;;5001278;28;20272;-83
2021/07/26 04:40:02;;;;;;;5.77;4.13;;;14.90;99.90;;;;;;4984652;28;20207;-83
2021/07/26 04:42:28;;;;;;;5.30;4.00;;;15.00;99.90;;;;;;4983465;28;20236;-83
2021/07/26 04:44:53;;;;;;;4.77;3.80;;;15.00;99.90;;;;;;4983462;28;20276;-83
2021/07/26 04:47:19;;;;;;;4.87;4.40;;;15.00;99.90;;;;;;4998774;28;20184;-83
2021/07/26 04:49:44;;;;;;;8.37;4.13;;;15.00;99.90;;;;;;4999542;28;20212;-83
2021/07/26 04:52:10;;;;;;;4.20;3.80;;;15.00;99.90;;;;;;5000557;28;20275;-83
2021/07/26 04:54:36;;;;;;;4.30;3.90;;;15.10;99.90;;;;;;4999914;28;20246;-83
2021/07/26 04:57:01;;;;;;;4.83;4.33;;;15.10;99.90;;;;;;4985435;28;20176;-83
2021/07/26 04:59:27;;;;;;;5.83;4.80;;;15.20;99.90;;;;;;4987018;28;20183;-83
2021/07/26 05:01:53;;;;;;;4.37;3.97;;;15.20;99.90;;;;;;4986472;28;20251;-83
2021/07/26 05:04:18;;;;;;;4.60;4.00;;;15.10;99.90;;;;;;4986380;28;20195;-83
2021/07/26 05:06:45;;;;;;;11.30;4.50;;;15.20;99.90;;;;;;5000787;28;20191;-83
2021/07/26 05:09:11;;;;;;;5.13;4.17;;;15.30;99.90;;;;;;4987105;28;20173;-83
2021/07/26 05:11:40;;;;;;;6.20;4.23;;;15.30;99.90;;;;;;5003351;28;20229;-82
2021/07/26 05:14:06;;;;;;;4.50;3.97;;;15.30;99.90;;;;;;5004300;28;20200;-84
2021/07/26 05:16:32;;;;;;;8.60;4.00;;;15.30;99.90;;;;;;4984872;28;20177;-83
2021/07/26 05:18:58;;;;;;;5.17;4.10;;;;;;;;;;4985965;28;20622;-83
2021/07/26 05:21:24;;;;;;;6.23;4.10;;;15.30;99.90;;;;;;5002396;28;20188;-83
2021/07/26 05:23:50;;;;;;;10.33;5.07;;;15.30;99.90;;;;;;4987190;28;20200;-83
2021/07/26 05:26:16;;;;;;;10.20;5.70;;;15.30;99.90;;;;;;4987581;28;20263;-83
2021/07/26 05:28:42;;;;;;;14.87;7.53;;;15.40;99.90;;;;;;5000863;28;20184;-83
2021/07/26 05:31:07;;;;;;;10.67;6.00;;;15.40;99.90;;;;;;5001460;28;20303;-84
2021/07/26 05:33:33;;;;;;;6.97;4.67;;;15.40;99.90;;;;;;4984871;28;20216;-83
2021/07/26 05:35:58;;;;;;;5.60;3.83;;;15.40;99.90;;;;;;4999638;28;20189;-83
2021/07/26 05:38:24;;;;;;;8.50;4.70;;;15.50;99.90;;;;;;4985793;28;20176;-83
2021/07/26 05:40:50;;;;;;;11.67;4.13;;;15.50;99.90;;;;;;4999774;28;20192;-83
2021/07/26 05:43:15;;;;;;;5.90;4.00;;;15.60;99.90;;;;;;4999317;28;20270;-83
2021/07/26 05:45:41;;;;;;;6.80;4.20;;;15.60;99.90;;;;;;4998306;28;20565;-83
2021/07/26 05:48:07;;;;;;;4.60;3.77;;;15.70;99.90;;;;;;4983195;28;20200;-83
2021/07/26 05:50:32;;;;;;;5.83;3.47;;;15.70;99.90;;;;;;4998079;28;20712;-83
2021/07/26 05:52:58;;;;;;;5.30;3.40;;;15.80;99.90;;;;;;5007569;28;20233;-83
2021/07/26 05:55:24;;;;;;;7.57;4.10;;;15.80;99.90;;;;;;4991962;28;20223;-84
2021/07/26 05:57:53;;;;;;;6.27;3.87;;;15.90;99.90;;;;;;4987161;28;20176;-84
2021/07/26 06:00:35;;;;;;;11.80;4.47;;;15.90;99.90;;;;;;4986890;28;20172;-84
2021/07/26 06:03:00;;;;;;;5.77;3.80;;;15.90;99.90;;;;;;5002476;28;20190;-84
2021/07/26 06:05:26;;;;;;;4.57;4.07;;;16.00;99.90;;;;;;5001723;28;20552;-84
2021/07/26 06:07:52;;;;;;;6.70;3.33;;;16.00;99.90;;;;;;5001189;28;20566;-84
2021/07/26 06:10:18;;;;;;;5.20;3.40;;;16.10;99.90;;;;;;4986283;28;20195;-83
2021/07/26 06:12:44;;;;;;;8.47;3.67;;;16.10;99.90;;;;;;4985898;28;20165;-84
2021/07/26 06:15:10;;;;;;;4.43;3.30;;;16.20;99.90;;;;;;4985048;28;20710;-84
2021/07/26 06:17:35;;;;;;;5.77;3.50;;;16.20;99.90;;;;;;4984897;28;20175;-84
2021/07/26 06:20:03;;;;;;;8.60;3.70;;;16.20;99.90;;;;;;4984622;28;20662;-84
2021/07/26 06:22:30;;;;;;;8.13;3.57;;;16.30;99.90;;;;;;4999543;28;20195;-84
2021/07/26 06:24:55;;;;;;;6.27;3.40;;;16.30;99.90;;;;;;4998313;28;20225;-83
2021/07/26 06:27:21;;;;;;;7.80;3.40;;;16.30;99.90;;;;;;4998153;28;20181;-84
2021/07/26 06:29:48;;;;;;;4.57;3.80;;;16.40;99.90;;;;;;4983628;28;20678;-83
2021/07/26 06:32:14;;;;;;;5.07;3.40;;;16.40;99.90;;;;;;4986635;28;20197;-84
2021/07/26 06:34:40;;;;;;;5.17;3.27;;;16.50;99.90;;;;;;4987093;28;20197;-83
2021/07/26 06:37:06;;;;;;;5.37;3.67;;;16.50;99.90;;;;;;4987292;28;20196;-84
2021/07/26 06:39:31;;;;;;;5.20;3.20;;;16.50;99.90;;;;;;5002502;28;20177;-84
2021/07/26 06:41:57;;;;;;;5.50;3.80;;;16.50;99.90;;;;;;5001788;28;20301;-84
2021/07/26 06:44:23;;;;;;;5.23;3.40;;;16.60;99.90;;;;;;5001169;28;20216;-84
2021/07/26 06:46:48;;;;;;;4.17;3.60;;;16.60;99.90;;;;;;5001732;28;20192;-84
2021/07/26 06:49:15;;;;;;;5.60;3.60;;;16.60;99.90;;;;;;4986334;28;20243;-84
2021/07/26 06:51:41;;;;;;;7.93;3.77;;;16.60;99.90;;;;;;5000718;28;20211;-84
2021/07/26 06:54:07;;;;;;;5.57;3.40;;;16.60;99.90;;;;;;4985996;28;20249;-84
2021/07/26 06:56:32;;;;;;;4.10;3.70;;;16.70;99.90;;;;;;4987130;28;20169;-84
2021/07/26 06:58:58;;;;;;;8.13;3.77;;;16.70;99.90;;;;;;5002591;28;20186;-84
2021/07/26 07:01:24;;;;;;;4.57;3.70;;;16.80;99.90;;;;;;5002263;28;20200;-84
2021/07/26 07:03:49;;;;;;;5.70;3.73;;;16.90;99.90;;;;;;4987401;28;20201;-85
2021/07/26 07:06:16;;;;;;;4.90;3.60;;;16.90;99.90;;;;;;5002649;28;20182;-84
2021/07/26 07:08:43;;;;;;;8.27;4.03;;;17.00;99.90;;;;;;4986785;28;20209;-86
2021/07/26 07:11:10;;;;;;;9.77;3.60;;;17.00;99.90;;;;;;5001574;28;20280;-83
2021/07/26 07:13:38;;;;;;;8.33;3.50;;;17.00;99.90;;;;;;4986388;28;20201;-83
2021/07/26 07:16:18;;;;;;;8.80;3.77;;;17.00;99.90;;;;;;5001690;28;20664;-83
2021/07/26 07:18:47;;;;;;;4.57;3.50;;;17.10;99.90;;;;;;5001540;28;20185;-83
2021/07/26 07:21:20;;;;;;;5.73;3.77;;;17.10;99.90;;;;;;5001220;28;20212;-84
2021/07/26 07:23:47;;;;;;;4.43;3.27;;;17.10;99.90;;;;;;4986674;28;20204;-83
2021/07/26 07:26:13;;;;;;;7.73;3.40;;;17.10;99.90;;;;;;5001796;28;20204;-82
2021/07/26 07:28:39;;;;;;;5.80;3.47;;;17.20;99.90;;;;;;4985603;28;20548;-83
2021/07/26 07:31:05;;;;;;;3.77;3.40;;;17.20;99.90;;;;;;5001917;28;20296;-82
2021/07/26 07:33:31;;;;;;;6.00;3.93;;;17.30;99.90;;;;;;5001877;28;20673;-82
2021/07/26 07:36:03;;;;;;;5.10;3.60;;;17.30;99.90;;;;;;5003264;28;20185;-83
2021/07/26 07:38:29;;;;;;;8.03;3.60;;;17.40;99.90;;;;;;4988906;28;20258;-82
2021/07/26 07:40:55;;;;;;;5.77;3.90;;;17.50;99.90;;;;;;4986425;28;20185;-82
2021/07/26 07:43:21;;;;;;;5.73;3.57;;;17.60;99.90;;;;;;4980930;28;20188;-82
2021/07/26 07:45:47;;;;;;;4.43;3.27;;;17.70;99.90;;;;;;4996292;28;20197;-82
2021/07/26 07:48:15;;;;;;;3.17;2.87;;;17.80;99.90;;;;;;4996142;28;20183;-83
2021/07/26 07:50:40;;;;;;;5.37;3.50;;;17.90;99.90;;;;;;4987447;28;20255;-82
2021/07/26 07:53:06;;;;;;;4.10;3.63;;;18.10;99.90;;;;;;4998310;28;20214;-82
2021/07/26 07:55:32;;;;;;;3.93;3.47;;;18.20;99.90;;;;;;5002667;28;20194;-83
2021/07/26 07:58:01;;;;;;;4.07;3.57;;;18.30;99.90;;;;;;5002419;28;20186;-83
2021/07/26 08:00:27;;;;;;;4.60;3.10;;;18.50;99.90;;;;;;4992805;28;20726;-82
2021/07/26 08:02:52;;;;;;;7.63;3.30;;;18.60;99.90;;;;;;4991830;28;20186;-82
2021/07/26 08:05:19;;;;;;;3.27;2.97;;;18.70;99.90;;;;;;5008920;28;20267;-82
2021/07/26 08:07:45;;;;;;;3.43;2.93;;;18.80;99.90;;;;;;5004806;28;20187;-82
2021/07/26 08:10:12;;;;;;;5.97;3.60;;;19.00;99.90;;;;;;4981755;28;20202;-82
2021/07/26 08:12:38;;;;;;;4.57;3.23;;;19.10;99.90;;;;;;4992946;28;20172;-82
2021/07/26 08:15:04;;;;;;;3.33;3.00;;;19.20;99.90;;;;;;4998667;28;20203;-81
2021/07/26 08:17:30;;;;;;;3.83;2.87;;;19.20;99.90;;;;;;4999573;28;20176;-82
2021/07/26 08:19:55;;;;;;;3.97;2.60;;;19.20;99.90;;;;;;4999500;28;20177;-83
2021/07/26 08:22:21;;;;;;;5.60;2.60;;;19.20;99.90;;;;;;4999641;28;20280;-82
2021/07/26 08:24:47;;;;;;;3.23;2.40;;;19.30;99.90;;;;;;4999563;28;20200;-82
2021/07/26 08:27:12;;;;;;;4.27;2.60;;;19.50;99.90;;;;;;4985386;28;20204;-82
2021/07/26 08:29:38;;;;;;;5.57;2.80;;;19.60;99.90;;;;;;4998355;28;20206;-82
2021/07/26 08:32:04;;;;;;;4.60;2.67;;;19.70;99.90;;;;;;4999263;28;20641;-82
2021/07/26 08:34:29;;;;;;;4.53;3.47;;;19.90;99.90;;;;;;4999543;28;20206;-82
2021/07/26 08:36:55;;;;;;;5.90;3.17;;;20.10;99.90;;;;;;4986273;28;20176;-82
2021/07/26 08:39:21;;;;;;;4.40;3.10;;;20.30;99.90;;;;;;5005257;28;20176;-82
2021/07/26 08:41:47;;;;;;;3.60;3.00;;;20.50;99.90;;;;;;4990662;28;20207;-81
2021/07/26 08:44:13;;;;;;;5.30;3.10;;;20.70;99.90;;;;;;5002474;28;20220;-83
2021/07/26 08:46:42;;;;;;;4.03;2.90;;;20.80;99.90;;;;;;5002951;28;20215;-82
2021/07/26 08:49:11;;;;;;;3.80;2.80;;;20.90;99.90;;;;;;4986210;28;20176;-82
2021/07/26 08:51:42;;;;;;;3.30;3.00;;;21.00;99.90;;;;;;5000282;28;20214;-82
2021/07/26 08:54:10;;;;;;;3.67;2.90;;;21.30;99.90;;;;;;4998183;28;20212;-83
2021/07/26 08:56:37;;;;;;;2.90;2.60;;;21.40;99.90;;;;;;4987258;28;20262;-82
2021/07/26 08:59:02;;;;;;;3.77;2.80;;;21.70;99.90;;;;;;4988716;28;20183;-82
2021/07/26 09:01:28;;;;;;;3.53;2.83;;;21.80;99.90;;;;;;5002495;28;20188;-82
2021/07/26 09:03:56;;;;;;;4.20;2.70;;;21.80;99.90;;;;;;5003801;28;20277;-82
2021/07/26 09:06:22;;;;;;;2.70;2.50;;;21.90;99.90;;;;;;5004075;28;20184;-82
2021/07/26 09:08:48;;;;;;;4.23;2.90;;;21.90;99.90;;;;;;4989386;28;20168;-83
2021/07/26 09:11:13;;;;;;;3.90;3.00;;;22.00;99.90;;;;;;5003342;28;20733;-82
2021/07/26 09:13:44;;;;;;;3.70;3.37;;;22.20;99.90;;;;;;5005478;28;20225;-83
2021/07/26 09:16:13;;;;;;;3.73;3.10;;;22.40;99.90;;;;;;4990356;28;20205;-83
2021/07/26 09:18:38;;;;;;;4.03;3.40;;;22.60;99.90;;;;;;5006025;28;20176;-83
2021/07/26 09:21:04;;;;;;;5.53;3.23;;;22.80;99.90;;;;;;5008619;28;20227;-82
2021/07/26 09:23:30;;;;;;;4.90;3.47;;;22.90;99.90;;;;;;4992913;28;20200;-83
2021/07/26 09:25:55;;;;;;;4.53;3.47;;;23.00;99.90;;;;;;5008114;28;20254;-82
2021/07/26 09:28:21;;;;;;;5.60;4.27;;;23.10;99.90;;;;;;4985212;28;20187;-82
2021/07/26 09:30:55;;;;;;;6.10;3.70;;;23.40;99.90;;;;;;5000108;28;20204;-82
2021/07/26 09:33:23;;;;;;;3.97;3.57;;;23.60;99.90;;;;;;5000546;28;20216;-82
2021/07/26 09:36:09;;;;;;;4.57;4.00;;;23.60;99.90;;;;;;4985598;28;20212;-83
2021/07/26 09:38:36;;;;;;;4.17;3.77;;;23.80;99.90;;;;;;5000385;28;20605;-82
2021/07/26 09:41:04;;;;;;;4.63;3.93;;;23.80;99.90;;;;;;4984185;28;20176;-82
2021/07/26 09:43:30;;;;;;;5.17;3.90;;;23.80;99.90;;;;;;4997869;28;20288;-83
2021/07/26 09:45:56;;;;;;;4.73;3.60;;;24.00;99.90;;;;;;5007136;28;20199;-82
2021/07/26 09:48:26;;;;;;;4.80;3.10;;;24.00;99.90;;;;;;5004440;28;20180;-82
2021/07/26 09:50:52;;;;;;;4.30;2.90;;;24.20;99.90;;;;;;4989644;28;20211;-83
2021/07/26 09:53:23;;;;;;;4.50;3.50;;;24.40;99.90;;;;;;4989131;28;20583;-82
2021/07/26 09:55:54;;;;;;;4.07;3.47;;;24.60;99.90;;;;;;4989925;28;20200;-82
2021/07/26 09:58:38;;;;;;;5.63;3.67;;;24.90;99.90;;;;;;4988929;28;20241;-83
2021/07/26 10:01:05;;;;;;;5.37;2.77;;;25.00;99.90;;;;;;5003579;28;20188;-82
2021/07/26 10:03:31;;;;;;;3.73;3.00;;;24.70;99.90;;;;;;4987861;28;20208;-82
2021/07/26 10:05:59;;;;;;;3.77;3.30;;;24.80;99.90;;;;;;4988279;28;20177;-82
2021/07/26 10:08:26;;;;;;;4.00;3.17;;;24.60;99.90;;;;;;5002327;28;20184;-82
2021/07/26 10:10:53;;;;;;;4.07;3.20;;;24.70;99.90;;;;;;5003859;28;20208;-82
2021/07/26 10:13:19;;;;;;;4.30;3.33;;;24.90;99.90;;;;;;5006110;28;20696;-82
2021/07/26 10:15:45;;;;;;;4.10;3.70;;;24.90;99.90;;;;;;5007987;28;20177;-82
2021/07/26 10:18:11;;;;;;;4.53;3.67;;;25.20;99.90;;;;;;5006964;28;20194;-82
2021/07/26 10:20:39;;;;;;;4.73;3.97;;;25.50;99.90;;;;;;5007879;28;20182;-82
2021/07/26 10:23:13;;;;;;;4.37;3.77;;;25.70;99.90;;;;;;5005403;28;20628;-82
2021/07/26 10:25:52;;;;;;;4.07;3.67;;;26.00;99.90;;;;;;5007055;28;20637;-82
2021/07/26 10:28:54;;;;;;;4.60;4.10;;;26.30;99.90;;;;;;5006907;28;20172;-82
2021/07/26 10:31:30;;;;;;;4.60;3.93;;;26.30;99.90;;;;;;5022584;28;20200;-80
2021/07/26 10:34:15;;;;;;;3.87;3.50;;;26.30;99.90;;;;;;5007232;28;20219;-82
2021/07/26 10:36:41;;;;;;;3.80;3.40;;;26.10;99.90;;;;;;5007047;28;20217;-82
2021/07/26 10:39:07;;;;;;;3.83;3.40;;;26.20;99.90;;;;;;5004588;28;20185;-82
2021/07/26 10:41:42;;;;;;;4.30;3.87;;;26.50;99.90;;;;;;5006113;28;20578;-82
2021/07/26 10:44:15;;;;;;;4.37;3.87;;;27.00;99.90;;;;;;5003885;28;20754;-82
2021/07/26 10:46:53;;;;;;;4.57;3.90;;;27.20;99.90;;;;;;5001431;28;20182;-81
2021/07/26 10:49:38;;;;;;;4.13;3.40;;;27.50;99.90;;;;;;4997588;28;20251;-80
2021/07/26 10:52:03;;;;;;;4.30;3.90;;;27.50;99.90;;;;;;4981960;28;20193;-80
2021/07/26 10:54:34;;;;;;;3.57;3.27;;;27.50;99.90;;;;;;4987468;28;20228;-81
2021/07/26 10:57:01;;;;;;;4.10;3.63;;;27.60;99.90;;;;;;4986346;28;20200;-80
2021/07/26 10:59:27;;;;;;;3.77;3.43;;;27.70;99.90;;;;;;4986948;28;20267;-81
2021/07/26 11:02:01;;;;;;;3.97;3.47;;;27.70;99.90;;;;;;4988439;28;20204;-81
2021/07/26 11:04:45;;;;;;;3.73;3.23;;;28.00;99.90;;;;;;4988926;28;20245;-80
2021/07/26 11:07:24;;;;;;;3.40;3.10;;;28.20;99.90;;;;;;4989455;28;20213;-81
2021/07/26 11:09:51;;;;;;;5.33;3.03;;;28.20;99.90;;;;;;4990505;28;20223;-81
2021/07/26 11:12:53;;;;;;;3.70;3.37;;;27.90;99.90;;;;;;4987475;28;20553;-82
2021/07/26 11:15:19;;;;;;;3.97;3.57;;;27.40;99.90;;;;;;4981069;28;20312;-83
2021/07/26 11:18:14;;;;;;;6.47;3.80;;;26.90;99.90;;;;;;4981524;28;20213;-79
2021/07/26 11:20:59;;;;;;;3.43;3.10;;;26.60;99.90;;;;;;4983392;28;20184;-80
2021/07/26 11:23:46;;;;;;;5.10;3.10;;;26.60;99.90;;;;;;4991990;28;20205;-80
2021/07/26 11:26:25;;;;;;;4.80;2.87;;;27.00;99.90;;;;;;4995911;28;20176;-81
2021/07/26 11:29:11;;;;;;;3.23;2.93;;;27.50;99.90;;;;;;4986614;28;20192;-81
2021/07/26 11:31:38;;;;;;;3.87;3.30;;;27.70;99.90;;;;;;4982268;28;20189;-80
2021/07/26 11:34:14;;;;;;;3.40;3.10;;;27.80;99.90;;;;;;4982165;28;20210;-81
2021/07/26 11:37:03;;;;;;;3.90;3.47;;;28.40;99.90;;;;;;4981474;28;20172;-80
2021/07/26 11:39:48;;;;;;;4.03;3.20;;;28.20;99.90;;;;;;4980515;28;20247;-81
2021/07/26 11:42:19;;;;;;;6.17;3.30;;;28.30;99.90;;;;;;4987296;28;20203;-81
2021/07/26 11:44:46;;;;;;;5.03;3.70;;;28.50;99.90;;;;;;4985407;28;20201;-81
2021/07/26 11:47:42;;;;;;;4.20;3.67;;;29.00;99.90;;;;;;4984970;28;20177;-81
2021/07/26 11:50:14;;;;;;;3.73;3.20;;;29.00;99.90;;;;;;4984355;28;20206;-82
2021/07/26 11:52:52;;;;;;;3.53;2.70;;;29.20;99.90;;;;;;4985419;28;20166;-82
2021/07/26 11:55:18;;;;;;;4.47;3.10;;;29.60;99.90;;;;;;4984730;28;20222;-81
2021/07/26 11:57:53;;;;;;;3.80;3.50;;;30.00;99.90;;;;;;4987756;28;20179;-81
2021/07/26 12:00:34;;;;;;;3.50;2.97;;;30.00;99.90;;;;;;4989083;28;20640;-82
2021/07/26 12:03:01;;;;;;;3.33;2.60;;;30.10;99.90;;;;;;4985788;28;20171;-82
2021/07/26 12:05:29;;;;;;;3.27;2.97;;;30.10;99.90;;;;;;4985106;28;20293;-81
2021/07/26 12:07:55;;;;;;;7.73;3.77;;;29.90;99.90;;;;;;4984185;28;20675;-81
2021/07/26 12:10:37;;;;;;;2.90;2.70;;;29.90;99.90;;;;;;4982602;28;20212;-81
2021/07/26 12:13:18;;;;;;;4.70;2.83;;;30.20;99.90;;;;;;4982957;28;20181;-81
2021/07/26 12:15:45;;;;;;;3.73;3.03;;;30.40;99.90;;;;;;4982897;28;20208;-81
2021/07/26 12:18:18;;;;;;;3.40;2.43;;;30.40;99.90;;;;;;4983187;28;20204;-81
2021/07/26 12:20:52;;;;;;;4.03;2.87;;;30.40;99.90;;;;;;4983648;28;20183;-83
2021/07/26 12:23:29;;;;;;;2.80;2.60;;;31.00;99.90;;;;;;4984071;28;20270;-82
2021/07/26 12:25:55;;;;;;;3.43;2.70;;;31.60;99.90;;;;;;4983924;28;20160;-82
2021/07/26 12:28:40;;;;;;;4.73;2.60;;;31.90;99.90;;;;;;4982640;28;20192;-82
2021/07/26 12:31:28;;;;;;;3.07;2.80;;;32.00;99.90;;;;;;4988556;28;20636;-82
2021/07/26 12:34:18;;;;;;;2.93;2.73;;;32.00;99.90;;;;;;4985721;28;20231;-82
2021/07/26 12:36:45;;;;;;;3.13;2.57;;;31.90;99.90;;;;;;4983991;28;20644;-81
2021/07/26 12:39:11;;;;;;;3.03;2.53;;;32.10;99.90;;;;;;4989902;28;20181;-82
2021/07/26 12:41:38;;;;;;;3.00;2.60;;;32.10;99.90;;;;;;4989063;28;20182;-82
2021/07/26 12:44:17;;;;;;;3.43;2.87;;;31.60;99.90;;;;;;4987750;28;20736;-81
2021/07/26 12:46:46;;;;;;;5.17;2.60;;;30.80;99.90;;;;;;4988194;28;20173;-82
2021/07/26 12:49:27;;;;;;;2.97;2.77;;;30.20;99.90;;;;;;4987519;28;20207;-81
2021/07/26 12:51:54;;;;;;;2.90;2.30;;;30.60;99.90;;;;;;4987781;28;20704;-81
2021/07/26 12:54:21;;;;;;;5.70;2.70;;;30.70;99.90;;;;;;4987425;28;20227;-81
2021/07/26 12:56:46;;;;;;;3.63;3.10;;;31.00;99.90;;;;;;4987232;28;20169;-81